sensor_id;sensor_type;location;lat;lon;timestamp;pressure;altitude;pressure_sealevel;temperature;humidity
15880;BME280;61999;51.514;14.614;2023-02-18T00:01:36;99995.63;;;-0.52;50.44
15880;BME280;61999;51.514;14.614;2023-02-18T00:04:04;100008.50;;;-0.25;50.77
15880;BME280;61999;51.514;14.614;2023-02-18T00:06:34;100003.97;;;-0.44;50.52
15880;BME280;61999;51.514;14.614;2023-02-18T00:09:04;100008.22;;;-0.68;50.88
15880;BME280;61999;51.514;14.614;2023-02-18T00:11:35;100001.41;;;-0.70;50.58
15880;BME280;61999;51.514;14.614;2023-02-18T00:14:05;100000.00;;;-0.54;50.59
15880;BME280;61999;51.514;14.614;2023-02-18T00:16:34;99999.97;;;-0.04;50.51
15880;BME280;61999;51.514;14.614;2023-02-18T00:19:05;100001.22;;;-0.64;51.71
15880;BME280;61999;51.514;14.614;2023-02-18T00:21:35;100001.78;;;-0.56;52.32
15880;BME280;61999;51.514;14.614;2023-02-18T00:24:04;100030.50;;;-0.12;51.72
15880;BME280;61999;51.514;14.614;2023-02-18T00:26:33;100006.94;;;-0.56;54.05
15880;BME280;61999;51.514;14.614;2023-02-18T00:29:02;100014.97;;;-0.89;54.45
15880;BME280;61999;51.514;14.614;2023-02-18T00:31:32;100020.66;;;-0.79;55.04
15880;BME280;61999;51.514;14.614;2023-02-18T00:34:03;100004.44;;;-0.58;53.83
15880;BME280;61999;51.514;14.614;2023-02-18T00:36:32;100003.41;;;-1.05;54.29
15880;BME280;61999;51.514;14.614;2023-02-18T00:39:05;100025.91;;;-1.07;54.86
15880;BME280;61999;51.514;14.614;2023-02-18T00:41:35;100033.59;;;-1.06;55.28
15880;BME280;61999;51.514;14.614;2023-02-18T00:44:04;100026.19;;;-0.63;55.43
15880;BME280;61999;51.514;14.614;2023-02-18T00:46:34;100009.69;;;-1.12;55.05
15880;BME280;61999;51.514;14.614;2023-02-18T00:49:04;100029.75;;;-1.21;55.09
15880;BME280;61999;51.514;14.614;2023-02-18T00:51:33;100038.09;;;-0.84;54.53
15880;BME280;61999;51.514;14.614;2023-02-18T00:54:01;100024.66;;;-0.95;54.81
15880;BME280;61999;51.514;14.614;2023-02-18T00:56:29;100034.88;;;-0.64;53.49
15880;BME280;61999;51.514;14.614;2023-02-18T00:58:57;100035.28;;;-1.05;54.64
15880;BME280;61999;51.514;14.614;2023-02-18T01:01:25;100039.41;;;-0.99;55.59
15880;BME280;61999;51.514;14.614;2023-02-18T01:03:53;100028.72;;;-0.62;55.15
15880;BME280;61999;51.514;14.614;2023-02-18T01:06:22;100032.03;;;-1.10;55.20
15880;BME280;61999;51.514;14.614;2023-02-18T01:08:50;100013.00;;;-1.09;56.06
15880;BME280;61999;51.514;14.614;2023-02-18T01:11:18;100042.31;;;-0.82;55.71
15880;BME280;61999;51.514;14.614;2023-02-18T01:13:47;100041.69;;;-1.16;55.18
15880;BME280;61999;51.514;14.614;2023-02-18T01:16:15;100043.53;;;-0.92;54.70
15880;BME280;61999;51.514;14.614;2023-02-18T01:18:43;100021.28;;;-1.26;55.62
15880;BME280;61999;51.514;14.614;2023-02-18T01:21:11;100033.84;;;-1.41;56.28
15880;BME280;61999;51.514;14.614;2023-02-18T01:23:41;100038.78;;;-1.34;56.51
15880;BME280;61999;51.514;14.614;2023-02-18T01:26:10;100039.25;;;-1.21;55.64
15880;BME280;61999;51.514;14.614;2023-02-18T01:28:39;100044.13;;;-1.40;54.77
15880;BME280;61999;51.514;14.614;2023-02-18T01:31:11;100054.00;;;-1.53;55.21
15880;BME280;61999;51.514;14.614;2023-02-18T01:33:39;100029.19;;;-1.58;55.70
15880;BME280;61999;51.514;14.614;2023-02-18T01:36:09;100043.47;;;-1.78;56.55
15880;BME280;61999;51.514;14.614;2023-02-18T01:38:37;100046.78;;;-1.73;56.80
15880;BME280;61999;51.514;14.614;2023-02-18T01:41:07;100041.72;;;-1.76;56.85
15880;BME280;61999;51.514;14.614;2023-02-18T01:43:36;100043.69;;;-1.54;56.07
15880;BME280;61999;51.514;14.614;2023-02-18T01:46:12;100035.47;;;-1.39;55.66
15880;BME280;61999;51.514;14.614;2023-02-18T01:48:44;100061.19;;;-1.64;55.77
15880;BME280;61999;51.514;14.614;2023-02-18T01:51:17;100060.03;;;-0.96;55.02
15880;BME280;61999;51.514;14.614;2023-02-18T01:53:53;100053.31;;;-1.30;55.21
15880;BME280;61999;51.514;14.614;2023-02-18T01:56:34;100046.63;;;-1.37;56.66
15880;BME280;61999;51.514;14.614;2023-02-18T01:59:08;100047.06;;;-1.23;56.05
15880;BME280;61999;51.514;14.614;2023-02-18T02:01:40;100052.13;;;-1.20;55.56
15880;BME280;61999;51.514;14.614;2023-02-18T02:04:09;100046.19;;;-1.51;56.13
15880;BME280;61999;51.514;14.614;2023-02-18T02:06:37;100045.81;;;-1.39;56.85
15880;BME280;61999;51.514;14.614;2023-02-18T02:09:09;100050.31;;;-1.44;57.17
15880;BME280;61999;51.514;14.614;2023-02-18T02:12:05;100060.22;;;-1.02;55.39
15880;BME280;61999;51.514;14.614;2023-02-18T02:15:22;100053.75;;;-1.15;55.47
15880;BME280;61999;51.514;14.614;2023-02-18T02:18:16;100054.94;;;-0.99;54.96
15880;BME280;61999;51.514;14.614;2023-02-18T02:21:38;100049.28;;;-1.70;55.95
15880;BME280;61999;51.514;14.614;2023-02-18T02:25:03;100053.03;;;-1.21;55.41
15880;BME280;61999;51.514;14.614;2023-02-18T02:28:09;100057.84;;;-1.99;57.92
15880;BME280;61999;51.514;14.614;2023-02-18T02:34:33;100070.78;;;-1.99;57.76
15880;BME280;61999;51.514;14.614;2023-02-18T02:37:13;100070.78;;;-1.99;57.96
15880;BME280;61999;51.514;14.614;2023-02-18T02:39:56;100055.69;;;-1.83;57.84
15880;BME280;61999;51.514;14.614;2023-02-18T02:42:42;100064.81;;;-2.02;57.65
15880;BME280;61999;51.514;14.614;2023-02-18T02:45:23;100067.03;;;-1.89;57.51
15880;BME280;61999;51.514;14.614;2023-02-18T02:48:00;100080.22;;;-1.99;57.58
15880;BME280;61999;51.514;14.614;2023-02-18T02:50:39;100078.50;;;-1.68;57.57
15880;BME280;61999;51.514;14.614;2023-02-18T02:53:16;100077.47;;;-1.60;56.56
15880;BME280;61999;51.514;14.614;2023-02-18T02:55:46;100071.69;;;-1.70;56.65
15880;BME280;61999;51.514;14.614;2023-02-18T02:58:18;100084.84;;;-1.47;56.10
15880;BME280;61999;51.514;14.614;2023-02-18T03:05:14;100095.34;;;-1.84;57.07
15880;BME280;61999;51.514;14.614;2023-02-18T03:08:17;100079.56;;;-1.75;56.68
15880;BME280;61999;51.514;14.614;2023-02-18T03:10:58;100090.84;;;-1.77;55.98
15880;BME280;61999;51.514;14.614;2023-02-18T03:13:50;100098.16;;;-1.60;55.84
15880;BME280;61999;51.514;14.614;2023-02-18T03:16:27;100084.00;;;-1.47;55.04
15880;BME280;61999;51.514;14.614;2023-02-18T03:19:06;100084.66;;;-1.40;55.01
15880;BME280;61999;51.514;14.614;2023-02-18T03:21:41;100086.25;;;-1.68;55.41
15880;BME280;61999;51.514;14.614;2023-02-18T03:24:17;100088.81;;;-1.35;54.29
15880;BME280;61999;51.514;14.614;2023-02-18T03:26:52;100082.25;;;-1.47;55.26
15880;BME280;61999;51.514;14.614;2023-02-18T03:29:23;100087.03;;;-1.64;54.22
15880;BME280;61999;51.514;14.614;2023-02-18T03:31:56;100078.84;;;-1.47;55.09
15880;BME280;61999;51.514;14.614;2023-02-18T03:34:31;100089.31;;;-1.53;54.95
15880;BME280;61999;51.514;14.614;2023-02-18T03:37:01;100098.31;;;-1.67;55.13
15880;BME280;61999;51.514;14.614;2023-02-18T03:39:35;100103.00;;;-2.14;56.65
15880;BME280;61999;51.514;14.614;2023-02-18T03:42:03;100086.25;;;-1.68;56.02
15880;BME280;61999;51.514;14.614;2023-02-18T03:44:33;100105.03;;;-1.92;56.53
15880;BME280;61999;51.514;14.614;2023-02-18T03:47:01;100096.81;;;-2.08;56.33
15880;BME280;61999;51.514;14.614;2023-02-18T03:49:29;100087.78;;;-1.92;56.66
15880;BME280;61999;51.514;14.614;2023-02-18T03:51:57;100105.47;;;-2.09;57.09
15880;BME280;61999;51.514;14.614;2023-02-18T03:54:24;100105.66;;;-2.17;56.86
15880;BME280;61999;51.514;14.614;2023-02-18T03:56:53;100095.81;;;-2.02;56.77
15880;BME280;61999;51.514;14.614;2023-02-18T03:59:21;100101.84;;;-1.71;56.08
15880;BME280;61999;51.514;14.614;2023-02-18T04:01:49;100097.47;;;-1.36;55.23
15880;BME280;61999;51.514;14.614;2023-02-18T04:04:17;100105.84;;;-1.59;56.04
15880;BME280;61999;51.514;14.614;2023-02-18T04:06:45;100101.66;;;-1.61;56.49
15880;BME280;61999;51.514;14.614;2023-02-18T04:09:13;100095.34;;;-1.84;56.78
15880;BME280;61999;51.514;14.614;2023-02-18T04:11:41;100096.41;;;-1.60;56.55
15880;BME280;61999;51.514;14.614;2023-02-18T04:14:13;100094.25;;;-1.44;55.42
15880;BME280;61999;51.514;14.614;2023-02-18T04:16:41;100095.41;;;-1.54;54.99
15880;BME280;61999;51.514;14.614;2023-02-18T04:19:10;100099.38;;;-1.13;54.83
15880;BME280;61999;51.514;14.614;2023-02-18T04:21:37;100098.56;;;-0.87;54.57
15880;BME280;61999;51.514;14.614;2023-02-18T04:24:05;100083.84;;;-1.13;54.72
15880;BME280;61999;51.514;14.614;2023-02-18T04:26:33;100096.63;;;-1.08;53.90
15880;BME280;61999;51.514;14.614;2023-02-18T04:29:01;100096.59;;;-1.68;55.13
15880;BME280;61999;51.514;14.614;2023-02-18T04:31:30;100093.72;;;-1.55;56.02
15880;BME280;61999;51.514;14.614;2023-02-18T04:33:58;100084.75;;;-1.44;55.20
15880;BME280;61999;51.514;14.614;2023-02-18T04:36:26;100082.97;;;-1.73;56.00
15880;BME280;61999;51.514;14.614;2023-02-18T04:38:54;100081.16;;;-1.71;56.15
15880;BME280;61999;51.514;14.614;2023-02-18T04:41:22;100075.63;;;-1.55;55.50
15880;BME280;61999;51.514;14.614;2023-02-18T04:43:50;100067.84;;;-1.26;54.48
15880;BME280;61999;51.514;14.614;2023-02-18T04:46:18;100067.63;;;-1.18;54.27
15880;BME280;61999;51.514;14.614;2023-02-18T04:48:47;100080.50;;;-1.77;55.63
15880;BME280;61999;51.514;14.614;2023-02-18T04:51:15;100086.59;;;-1.80;55.89
15880;BME280;61999;51.514;14.614;2023-02-18T04:53:43;100084.78;;;-1.45;54.84
15880;BME280;61999;51.514;14.614;2023-02-18T04:56:11;100081.34;;;-1.77;55.63
15880;BME280;61999;51.514;14.614;2023-02-18T04:58:39;100089.00;;;-1.41;55.14
15880;BME280;61999;51.514;14.614;2023-02-18T05:01:07;100090.22;;;-1.25;54.46
15880;BME280;61999;51.514;14.614;2023-02-18T05:03:35;100082.19;;;-1.45;54.59
15880;BME280;61999;51.514;14.614;2023-02-18T05:06:05;100089.34;;;-1.24;53.92
15880;BME280;61999;51.514;14.614;2023-02-18T05:08:33;100093.50;;;-0.63;52.73
15880;BME280;61999;51.514;14.614;2023-02-18T05:11:05;100089.72;;;-0.80;51.40
15880;BME280;61999;51.514;14.614;2023-02-18T05:13:34;100101.59;;;-1.02;52.13
15880;BME280;61999;51.514;14.614;2023-02-18T05:16:02;100090.94;;;-1.49;53.59
15880;BME280;61999;51.514;14.614;2023-02-18T05:18:30;100096.72;;;-1.11;53.58
15880;BME280;61999;51.514;14.614;2023-02-18T05:20:58;100090.13;;;-0.65;52.04
15880;BME280;61999;51.514;14.614;2023-02-18T05:23:27;100091.88;;;-0.94;52.53
15880;BME280;61999;51.514;14.614;2023-02-18T05:25:55;100087.41;;;-1.17;52.46
15880;BME280;61999;51.514;14.614;2023-02-18T05:28:23;100099.84;;;-1.00;52.83
15880;BME280;61999;51.514;14.614;2023-02-18T05:30:51;100083.53;;;-1.32;53.77
15880;BME280;61999;51.514;14.614;2023-02-18T05:33:19;100091.84;;;-0.66;52.37
15880;BME280;61999;51.514;14.614;2023-02-18T05:35:47;100076.22;;;-0.89;52.72
15880;BME280;61999;51.514;14.614;2023-02-18T05:38:15;100086.94;;;-1.02;52.35
15880;BME280;61999;51.514;14.614;2023-02-18T05:40:45;100078.69;;;-1.13;52.66
15880;BME280;61999;51.514;14.614;2023-02-18T05:43:13;100077.13;;;-0.64;52.44
15880;BME280;61999;51.514;14.614;2023-02-18T05:45:41;100078.91;;;-0.92;52.44
15880;BME280;61999;51.514;14.614;2023-02-18T05:48:09;100088.03;;;-0.54;51.67
15880;BME280;61999;51.514;14.614;2023-02-18T05:50:37;100086.09;;;-1.02;52.53
15880;BME280;61999;51.514;14.614;2023-02-18T05:53:05;100084.69;;;-1.12;53.29
15880;BME280;61999;51.514;14.614;2023-02-18T05:55:33;100099.88;;;-0.47;51.72
15880;BME280;61999;51.514;14.614;2023-02-18T05:58:06;100086.66;;;-0.64;52.11
15880;BME280;61999;51.514;14.614;2023-02-18T06:00:34;100089.97;;;-1.15;52.75
15880;BME280;61999;51.514;14.614;2023-02-18T06:03:01;100091.00;;;-0.93;53.01
15880;BME280;61999;51.514;14.614;2023-02-18T06:05:29;100091.13;;;-0.98;52.92
15880;BME280;61999;51.514;14.614;2023-02-18T06:07:57;100084.09;;;-1.22;53.92
15880;BME280;61999;51.514;14.614;2023-02-18T06:10:25;100090.22;;;-0.68;53.22
15880;BME280;61999;51.514;14.614;2023-02-18T06:12:53;100095.22;;;-1.18;53.40
15880;BME280;61999;51.514;14.614;2023-02-18T06:15:22;100086.59;;;-1.19;53.62
15880;BME280;61999;51.514;14.614;2023-02-18T06:17:50;100083.16;;;-1.20;55.01
15880;BME280;61999;51.514;14.614;2023-02-18T06:20:18;100077.34;;;-1.26;54.65
15880;BME280;61999;51.514;14.614;2023-02-18T06:22:46;100071.13;;;-1.21;54.64
15880;BME280;61999;51.514;14.614;2023-02-18T06:25:14;100087.84;;;-1.03;54.20
15880;BME280;61999;51.514;14.614;2023-02-18T06:27:42;100087.81;;;-1.01;54.55
15880;BME280;61999;51.514;14.614;2023-02-18T06:30:11;100085.34;;;-0.51;53.30
15880;BME280;61999;51.514;14.614;2023-02-18T06:32:40;100090.41;;;-0.75;53.24
15880;BME280;61999;51.514;14.614;2023-02-18T06:35:08;100086.78;;;-0.97;54.44
15880;BME280;61999;51.514;14.614;2023-02-18T06:37:36;100079.84;;;-0.95;56.32
15880;BME280;61999;51.514;14.614;2023-02-18T06:40:06;100072.59;;;-0.57;54.67
15880;BME280;61999;51.514;14.614;2023-02-18T06:42:34;100072.38;;;-0.51;54.81
15880;BME280;61999;51.514;14.614;2023-02-18T06:45:03;100070.44;;;-0.19;53.43
15880;BME280;61999;51.514;14.614;2023-02-18T06:47:32;100078.75;;;-0.35;53.54
15880;BME280;61999;51.514;14.614;2023-02-18T06:50:02;100070.16;;;-0.35;53.92
15880;BME280;61999;51.514;14.614;2023-02-18T06:52:30;100070.59;;;0.01;54.33
15880;BME280;61999;51.514;14.614;2023-02-18T06:55:00;100065.94;;;0.36;54.56
15880;BME280;61999;51.514;14.614;2023-02-18T06:57:28;100059.03;;;0.82;53.12
15880;BME280;61999;51.514;14.614;2023-02-18T06:59:56;100056.69;;;0.52;51.43
15880;BME280;61999;51.514;14.614;2023-02-18T07:02:24;100061.63;;;0.82;50.73
15880;BME280;61999;51.514;14.614;2023-02-18T07:04:52;100064.19;;;1.26;51.95
15880;BME280;61999;51.514;14.614;2023-02-18T07:07:21;100056.03;;;1.35;51.54
15880;BME280;61999;51.514;14.614;2023-02-18T07:09:49;100067.47;;;0.87;49.96
15880;BME280;61999;51.514;14.614;2023-02-18T07:12:17;100049.44;;;1.48;52.35
15880;BME280;61999;51.514;14.614;2023-02-18T07:14:44;100054.78;;;1.01;49.95
15880;BME280;61999;51.514;14.614;2023-02-18T07:17:12;100064.00;;;0.41;51.38
15880;BME280;61999;51.514;14.614;2023-02-18T07:19:40;100063.75;;;1.16;50.61
15880;BME280;61999;51.514;14.614;2023-02-18T07:22:08;100058.78;;;0.88;51.98
15880;BME280;61999;51.514;14.614;2023-02-18T07:24:37;100055.03;;;0.95;51.86
15880;BME280;61999;51.514;14.614;2023-02-18T07:27:05;100060.06;;;1.42;51.96
15880;BME280;61999;51.514;14.614;2023-02-18T07:29:33;100049.13;;;1.14;51.22
15880;BME280;61999;51.514;14.614;2023-02-18T07:32:01;100055.69;;;1.00;49.77
15880;BME280;61999;51.514;14.614;2023-02-18T07:34:29;100060.34;;;0.92;49.49
15880;BME280;61999;51.514;14.614;2023-02-18T07:36:57;100058.13;;;1.47;49.53
15880;BME280;61999;51.514;14.614;2023-02-18T07:39:25;100049.69;;;0.07;52.20
15880;BME280;61999;51.514;14.614;2023-02-18T07:41:54;100042.09;;;1.16;50.31
15880;BME280;61999;51.514;14.614;2023-02-18T07:44:22;100050.25;;;1.07;50.09
15880;BME280;61999;51.514;14.614;2023-02-18T07:46:53;100038.28;;;0.82;50.10
15880;BME280;61999;51.514;14.614;2023-02-18T07:49:21;100039.16;;;1.45;49.39
15880;BME280;61999;51.514;14.614;2023-02-18T07:51:49;100025.84;;;0.90;49.99
15880;BME280;61999;51.514;14.614;2023-02-18T07:54:17;100049.91;;;0.25;51.03
15880;BME280;61999;51.514;14.614;2023-02-18T07:56:45;100059.31;;;-0.21;52.21
15880;BME280;61999;51.514;14.614;2023-02-18T07:59:15;100044.47;;;-0.41;53.63
15880;BME280;61999;51.514;14.614;2023-02-18T08:01:43;100037.56;;;-0.42;55.11
15880;BME280;61999;51.514;14.614;2023-02-18T08:04:11;100049.84;;;-0.22;53.72
15880;BME280;61999;51.514;14.614;2023-02-18T08:06:43;100036.44;;;-0.10;54.34
15880;BME280;61999;51.514;14.614;2023-02-18T08:09:13;100033.81;;;-0.34;55.75
15880;BME280;61999;51.514;14.614;2023-02-18T08:11:42;100017.88;;;0.27;54.03
15880;BME280;61999;51.514;14.614;2023-02-18T08:14:10;100024.19;;;0.66;53.75
15880;BME280;61999;51.514;14.614;2023-02-18T08:16:39;100026.78;;;1.30;52.55
15880;BME280;61999;51.514;14.614;2023-02-18T08:19:10;100008.00;;;1.45;51.76
15880;BME280;61999;51.514;14.614;2023-02-18T08:21:38;100028.34;;;0.70;54.45
15880;BME280;61999;51.514;14.614;2023-02-18T08:24:07;100011.94;;;0.91;53.95
15880;BME280;61999;51.514;14.614;2023-02-18T08:26:35;100020.25;;;0.55;54.65
15880;BME280;61999;51.514;14.614;2023-02-18T08:29:03;100016.03;;;0.06;56.56
15880;BME280;61999;51.514;14.614;2023-02-18T08:31:31;100019.34;;;-0.39;58.01
15880;BME280;61999;51.514;14.614;2023-02-18T08:34:01;100019.78;;;0.21;57.43
15880;BME280;61999;51.514;14.614;2023-02-18T08:36:30;100012.56;;;0.30;56.69
15880;BME280;61999;51.514;14.614;2023-02-18T08:38:58;100021.75;;;0.39;57.16
15880;BME280;61999;51.514;14.614;2023-02-18T08:41:26;100021.94;;;0.09;58.19
15880;BME280;61999;51.514;14.614;2023-02-18T08:43:54;100022.59;;;-0.59;63.35
15880;BME280;61999;51.514;14.614;2023-02-18T08:46:22;100010.03;;;-0.97;64.99
15880;BME280;61999;51.514;14.614;2023-02-18T08:48:51;100000.22;;;-0.35;65.26
15880;BME280;61999;51.514;14.614;2023-02-18T08:51:21;100003.78;;;-1.17;68.40
15880;BME280;61999;51.514;14.614;2023-02-18T08:53:49;100006.19;;;-1.11;69.91
15880;BME280;61999;51.514;14.614;2023-02-18T08:56:17;99996.84;;;-0.89;70.41
15880;BME280;61999;51.514;14.614;2023-02-18T08:58:45;99988.88;;;-1.36;71.52
15880;BME280;61999;51.514;14.614;2023-02-18T09:01:13;99989.09;;;-1.44;73.19
15880;BME280;61999;51.514;14.614;2023-02-18T09:03:41;99989.59;;;-1.60;74.18
15880;BME280;61999;51.514;14.614;2023-02-18T09:06:09;99992.50;;;-1.43;74.09
15880;BME280;61999;51.514;14.614;2023-02-18T09:08:38;99979.63;;;-1.45;75.38
15880;BME280;61999;51.514;14.614;2023-02-18T09:11:06;99980.31;;;-1.38;76.56
15880;BME280;61999;51.514;14.614;2023-02-18T09:13:36;99977.19;;;-1.49;76.98
15880;BME280;61999;51.514;14.614;2023-02-18T09:16:08;99966.66;;;-1.43;78.84
15880;BME280;61999;51.514;14.614;2023-02-18T09:18:37;99970.47;;;-1.84;80.53
15880;BME280;61999;51.514;14.614;2023-02-18T09:21:07;99963.75;;;-1.90;81.65
15880;BME280;61999;51.514;14.614;2023-02-18T09:23:37;99958.38;;;-1.54;81.55
15880;BME280;61999;51.514;14.614;2023-02-18T09:26:08;99956.13;;;-1.95;82.37
15880;BME280;61999;51.514;14.614;2023-02-18T09:28:37;99950.09;;;-1.66;83.74
15880;BME280;61999;51.514;14.614;2023-02-18T09:31:08;99948.69;;;-1.76;85.41
15880;BME280;61999;51.514;14.614;2023-02-18T09:33:39;99950.13;;;-1.37;84.66
15880;BME280;61999;51.514;14.614;2023-02-18T09:36:08;99943.59;;;-1.49;83.96
15880;BME280;61999;51.514;14.614;2023-02-18T09:38:37;99937.53;;;-1.48;84.51
15880;BME280;61999;51.514;14.614;2023-02-18T09:41:14;99931.13;;;-1.65;85.63
15880;BME280;61999;51.514;14.614;2023-02-18T09:43:48;99932.84;;;-1.65;86.62
15880;BME280;61999;51.514;14.614;2023-02-18T09:46:22;99926.13;;;-1.71;87.35
15880;BME280;61999;51.514;14.614;2023-02-18T09:48:51;99921.22;;;-1.80;89.62
15880;BME280;61999;51.514;14.614;2023-02-18T09:51:20;99912.41;;;-1.73;90.38
15880;BME280;61999;51.514;14.614;2023-02-18T09:53:49;99905.94;;;-1.88;90.69
15880;BME280;61999;51.514;14.614;2023-02-18T09:56:24;99901.31;;;-1.76;90.65
15880;BME280;61999;51.514;14.614;2023-02-18T09:58:54;99893.13;;;-1.91;91.75
15880;BME280;61999;51.514;14.614;2023-02-18T10:01:29;99897.00;;;-1.76;91.81
15880;BME280;61999;51.514;14.614;2023-02-18T10:04:04;99890.50;;;-1.33;90.15
15880;BME280;61999;51.514;14.614;2023-02-18T10:06:35;99880.94;;;-1.57;89.68
15880;BME280;61999;51.514;14.614;2023-02-18T10:09:15;99875.03;;;-1.34;90.63
15880;BME280;61999;51.514;14.614;2023-02-18T10:11:49;99879.59;;;-1.43;89.77
15880;BME280;61999;51.514;14.614;2023-02-18T10:14:18;99873.06;;;-1.28;89.91
15880;BME280;61999;51.514;14.614;2023-02-18T10:16:49;99869.00;;;-0.83;87.68
15880;BME280;61999;51.514;14.614;2023-02-18T10:19:24;99853.13;;;-0.99;88.89
15880;BME280;61999;51.514;14.614;2023-02-18T10:21:55;99841.94;;;-0.75;88.82
15880;BME280;61999;51.514;14.614;2023-02-18T10:24:32;99834.63;;;-0.40;87.52
15880;BME280;61999;51.514;14.614;2023-02-18T10:27:06;99830.69;;;-0.73;88.15
15880;BME280;61999;51.514;14.614;2023-02-18T10:29:35;99815.72;;;-0.65;88.76
15880;BME280;61999;51.514;14.614;2023-02-18T10:32:14;99809.63;;;-0.41;88.17
15880;BME280;61999;51.514;14.614;2023-02-18T10:34:48;99799.84;;;-0.56;88.48
15880;BME280;61999;51.514;14.614;2023-02-18T10:37:53;99785.38;;;-0.16;87.81
15880;BME280;61999;51.514;14.614;2023-02-18T10:40:34;99778.19;;;-0.32;87.41
15880;BME280;61999;51.514;14.614;2023-02-18T10:43:16;99772.09;;;-0.31;86.11
15880;BME280;61999;51.514;14.614;2023-02-18T10:45:55;99776.13;;;0.21;85.32
15880;BME280;61999;51.514;14.614;2023-02-18T10:48:46;99751.28;;;0.57;82.54
15880;BME280;61999;51.514;14.614;2023-02-18T10:51:22;99742.25;;;0.66;81.97
15880;BME280;61999;51.514;14.614;2023-02-18T10:53:52;99748.56;;;0.60;80.19
15880;BME280;61999;51.514;14.614;2023-02-18T10:56:41;99735.56;;;0.20;83.41
15880;BME280;61999;51.514;14.614;2023-02-18T10:59:19;99712.31;;;0.38;81.81
15880;BME280;61999;51.514;14.614;2023-02-18T11:01:55;99718.09;;;0.45;81.32
15880;BME280;61999;51.514;14.614;2023-02-18T11:04:33;99716.72;;;0.16;82.79
15880;BME280;61999;51.514;14.614;2023-02-18T11:07:05;99708.31;;;0.91;81.16
15880;BME280;61999;51.514;14.614;2023-02-18T11:09:41;99696.88;;;1.33;79.42
15880;BME280;61999;51.514;14.614;2023-02-18T11:12:18;99692.94;;;1.24;78.09
15880;BME280;61999;51.514;14.614;2023-02-18T11:14:50;99688.38;;;0.52;78.69
15880;BME280;61999;51.514;14.614;2023-02-18T11:17:32;99673.84;;;0.69;79.35
15880;BME280;61999;51.514;14.614;2023-02-18T11:20:28;99658.44;;;1.03;78.89
15880;BME280;61999;51.514;14.614;2023-02-18T11:23:17;99655.41;;;0.75;80.18
15880;BME280;61999;51.514;14.614;2023-02-18T11:25:59;99646.00;;;1.29;78.75
15880;BME280;61999;51.514;14.614;2023-02-18T11:28:40;99636.22;;;1.34;77.92
15880;BME280;61999;51.514;14.614;2023-02-18T11:31:18;99624.88;;;1.18;78.15
15880;BME280;61999;51.514;14.614;2023-02-18T11:33:51;99626.97;;;1.65;77.34
15880;BME280;61999;51.514;14.614;2023-02-18T11:36:24;99619.97;;;1.12;77.37
15880;BME280;61999;51.514;14.614;2023-02-18T11:38:56;99607.16;;;1.09;79.15
15880;BME280;61999;51.514;14.614;2023-02-18T11:41:34;99593.91;;;1.32;79.49
15880;BME280;61999;51.514;14.614;2023-02-18T11:44:17;99590.16;;;1.01;80.33
15880;BME280;61999;51.514;14.614;2023-02-18T11:46:58;99587.56;;;1.01;80.28
15880;BME280;61999;51.514;14.614;2023-02-18T11:49:27;99580.09;;;0.57;83.03
15880;BME280;61999;51.514;14.614;2023-02-18T11:52:21;99577.53;;;1.30;81.43
15880;BME280;61999;51.514;14.614;2023-02-18T11:55:01;99563.38;;;0.65;83.96
15880;BME280;61999;51.514;14.614;2023-02-18T11:57:30;99558.47;;;1.31;82.37
15880;BME280;61999;51.514;14.614;2023-02-18T12:00:01;99559.56;;;0.72;83.67
15880;BME280;61999;51.514;14.614;2023-02-18T12:02:35;99551.88;;;0.51;84.93
15880;BME280;61999;51.514;14.614;2023-02-18T12:05:11;99534.25;;;1.13;85.42
15880;BME280;61999;51.514;14.614;2023-02-18T12:07:46;99527.66;;;0.70;87.38
15880;BME280;61999;51.514;14.614;2023-02-18T12:10:22;99515.25;;;0.57;88.90
15880;BME280;61999;51.514;14.614;2023-02-18T12:13:00;99516.63;;;0.28;91.84
15880;BME280;61999;51.514;14.614;2023-02-18T12:15:52;99503.19;;;0.19;94.02
15880;BME280;61999;51.514;14.614;2023-02-18T12:18:43;99495.69;;;0.12;95.23
15880;BME280;61999;51.514;14.614;2023-02-18T12:21:38;99489.75;;;0.29;97.59
15880;BME280;61999;51.514;14.614;2023-02-18T12:24:35;99482.41;;;0.39;97.99
15880;BME280;61999;51.514;14.614;2023-02-18T12:27:16;99479.00;;;0.92;95.92
15880;BME280;61999;51.514;14.614;2023-02-18T12:30:12;99469.56;;;0.55;97.79
15880;BME280;61999;51.514;14.614;2023-02-18T12:32:54;99474.22;;;0.48;99.23
15880;BME280;61999;51.514;14.614;2023-02-18T12:35:48;99473.75;;;0.76;99.80
15880;BME280;61999;51.514;14.614;2023-02-18T12:38:52;99463.59;;;0.53;100.00
15880;BME280;61999;51.514;14.614;2023-02-18T12:41:46;99463.09;;;0.64;100.00
15880;BME280;61999;51.514;14.614;2023-02-18T12:44:33;99457.53;;;1.08;100.00
15880;BME280;61999;51.514;14.614;2023-02-18T12:47:22;99453.09;;;0.56;100.00
15880;BME280;61999;51.514;14.614;2023-02-18T12:53:29;99455.25;;;0.65;100.00
15880;BME280;61999;51.514;14.614;2023-02-18T12:59:15;99428.66;;;0.79;100.00
15880;BME280;61999;51.514;14.614;2023-02-18T13:01:58;99399.50;;;0.74;100.00
15880;BME280;61999;51.514;14.614;2023-02-18T13:04:51;99417.50;;;0.94;100.00
15880;BME280;61999;51.514;14.614;2023-02-18T13:07:52;99427.41;;;1.21;100.00
15880;BME280;61999;51.514;14.614;2023-02-18T13:10:51;99424.53;;;1.10;100.00
15880;BME280;61999;51.514;14.614;2023-02-18T13:13:25;99411.53;;;1.27;100.00
15880;BME280;61999;51.514;14.614;2023-02-18T13:16:01;99427.41;;;1.21;100.00
15880;BME280;61999;51.514;14.614;2023-02-18T13:18:34;99402.25;;;1.05;100.00
15880;BME280;61999;51.514;14.614;2023-02-18T13:21:08;99428.81;;;0.93;100.00
15880;BME280;61999;51.514;14.614;2023-02-18T13:23:45;99413.91;;;0.62;100.00
15880;BME280;61999;51.514;14.614;2023-02-18T13:26:18;99427.69;;;0.45;100.00
15880;BME280;61999;51.514;14.614;2023-02-18T13:28:56;99416.88;;;0.54;100.00
15880;BME280;61999;51.514;14.614;2023-02-18T13:31:41;99423.03;;;0.52;100.00